Saturday, November 18, 2017, 12:10 PM GMT
Back to Local

CWNH, Riviere Du Loup, Que.

Location: , , Canada Lat: 47.8
Local Time: 12:10 PM GMT (12:10 GMT) Lon: -69.55
Time Zone: GMT Elev: 485 ft

Show me the last for .
Show Coded

Time T Td Feel RH Dir Speed Gust Alt SLP Vis Weather Sky Remarks
2017-11-18 11:00 18 14 12 85 200° 3 - - 29.90 0 None
2017-11-18 10:00 18 13 - 78 290° 1 - - 29.90 0 None
2017-11-18 09:00 22 13 14 68 330° 7 - - 29.90 0 None
2017-11-18 08:00 20 13 - 73 310° 2 - - 29.90 0 None
2017-11-18 07:00 20 15 16 78 320° 3 - - 29.89 0 None
2017-11-18 06:00 21 13 16 72 320° 3 - - 29.87 0 None
2017-11-18 05:00 21 15 17 75 320° 3 - - 29.88 0 None
2017-11-18 04:00 21 13 16 71 270° 3 - - 29.89 0 None
2017-11-18 03:00 22 14 11 71 330° 9 - - 29.87 0 None
2017-11-18 02:00 22 15 - 72 310° 1 - - 29.87 0 None
2017-11-18 01:00 23 16 18 74 320° 3 - - 29.87 0 None
2017-11-18 00:00 24 17 19 72 310° 3 - - 29.86 0 None
2017-11-17 23:00 24 19 18 78 330° 5 - - 29.84 0 None
2017-11-17 22:00 25 17 20 72 320° 3 - - 29.83 0 None
2017-11-17 21:00 25 17 19 71 320° 5 - - 29.80 0 None
2017-11-17 20:00 26 18 19 70 310° 6 - - 29.79 0 Peak wind: 20 mph (18 kts) from 330° at 31 min
2017-11-17 19:00 26 19 14 71 340° 10 17 - 29.77 0 Peak wind: 23 mph (20 kts) from 0° at 07 min
2017-11-17 18:00 26 19 12 72 330° 14 22 - 29.75 0 Peak wind: 21 mph (19 kts) from 340° at 52 min
2017-11-17 17:00 27 20 13 77 330° 12 20 - 29.75 0 Peak wind: 21 mph (19 kts) from 320° at 30 min
2017-11-17 16:00 27 21 13 78 320° 13 22 - 29.76 0 Peak wind: 29 mph (26 kts) from 330° at 26 min
2017-11-17 15:00 28 22 14 79 330° 13 22 - 29.75 0 Peak wind: 25 mph (22 kts) from 320° at 19 min
2017-11-17 14:00 29 24 16 82 330° 12 20 - 29.74 0 Peak wind: 25 mph (22 kts) from 320° at 03 min
2017-11-17 13:00 31 27 19 84 330° 13 22 - 29.72 0 Peak wind: 23 mph (20 kts) from 300° at 38 min

Support USWX by starting your Amazon purchase here.